createdAt,value
2018-09-05T00:02:00.698Z,4.40
2018-09-05T00:04:28.967Z,5.17
2018-09-05T00:06:57.227Z,4.80
2018-09-05T00:09:25.488Z,5.17
2018-09-05T00:11:53.759Z,5.07
2018-09-05T00:14:22.114Z,5.23
2018-09-05T00:16:50.313Z,5.00
2018-09-05T00:19:18.599Z,5.43
2018-09-05T00:21:46.863Z,5.00
2018-09-05T00:24:15.129Z,5.00
2018-09-05T00:26:43.391Z,5.50
2018-09-05T00:29:11.646Z,5.10
2018-09-05T00:31:39.915Z,5.20
2018-09-05T00:34:08.190Z,5.23
2018-09-05T00:36:36.529Z,5.27
2018-09-05T00:39:06.816Z,5.20
2018-09-05T00:41:35.081Z,5.40
2018-09-05T00:44:03.379Z,4.90
2018-09-05T00:46:31.641Z,5.30
2018-09-05T00:48:59.991Z,5.60
2018-09-05T00:51:28.267Z,5.10
2018-09-05T00:53:56.539Z,5.10
2018-09-05T00:56:24.809Z,5.43
2018-09-05T00:58:53.072Z,5.40
2018-09-05T01:01:21.321Z,5.20
2018-09-05T01:03:49.587Z,5.37
2018-09-05T01:06:17.860Z,5.30
2018-09-05T01:08:46.149Z,5.30
2018-09-05T01:11:14.421Z,5.67
2018-09-05T01:13:42.668Z,5.90
2018-09-05T01:16:10.945Z,5.67
2018-09-05T01:18:39.192Z,5.97
2018-09-05T01:21:07.480Z,5.20
2018-09-05T01:23:35.756Z,5.00
2018-09-05T01:26:04.084Z,5.63
2018-09-05T01:28:32.378Z,5.47
2018-09-05T01:31:00.639Z,5.20
2018-09-05T01:33:28.933Z,5.40
2018-09-05T01:36:02.618Z,5.57
2018-09-05T01:38:30.880Z,5.63
2018-09-05T01:40:59.134Z,5.33
2018-09-05T01:43:27.421Z,5.53
2018-09-05T01:45:55.726Z,5.73
2018-09-05T01:48:23.978Z,5.33
2018-09-05T01:50:52.285Z,5.80
2018-09-05T01:53:20.554Z,5.30
2018-09-05T01:55:48.898Z,5.63
2018-09-05T01:58:17.160Z,5.53
2018-09-05T02:00:45.432Z,5.53
2018-09-05T02:03:13.689Z,6.00
2018-09-05T02:05:41.954Z,5.60
2018-09-05T02:08:10.236Z,5.27
2018-09-05T02:10:38.484Z,5.00
2018-09-05T02:13:06.786Z,5.50
2018-09-05T02:15:35.040Z,5.57
2018-09-05T02:18:03.656Z,6.00
2018-09-05T02:20:31.952Z,6.00
2018-09-05T02:23:00.213Z,5.77
2018-09-05T02:25:28.514Z,5.20
2018-09-05T02:27:56.804Z,5.30
2018-09-05T02:30:25.080Z,5.63
2018-09-05T02:32:53.331Z,5.37
2018-09-05T02:35:21.592Z,5.67
2018-09-05T02:37:49.876Z,5.50
2018-09-05T02:40:18.179Z,5.60
2018-09-05T02:42:46.440Z,5.90
2018-09-05T02:45:14.686Z,5.57
2018-09-05T02:47:42.967Z,5.77
2018-09-05T02:50:11.211Z,5.60
2018-09-05T02:52:39.465Z,6.00
2018-09-05T02:55:07.716Z,5.73
2018-09-05T02:57:35.992Z,5.40
2018-09-05T03:00:04.362Z,5.37
2018-09-05T03:02:32.608Z,5.57
2018-09-05T03:05:00.872Z,5.57
2018-09-05T03:07:29.118Z,5.20
2018-09-05T03:09:57.407Z,5.93
2018-09-05T03:12:25.674Z,5.90
2018-09-05T03:14:53.924Z,5.53
2018-09-05T03:17:22.284Z,5.93
2018-09-05T03:19:50.641Z,5.40
2018-09-05T03:22:18.916Z,5.67
2018-09-05T03:24:47.184Z,5.27
2018-09-05T03:27:15.452Z,5.53
2018-09-05T03:29:43.714Z,5.57
2018-09-05T03:32:12.088Z,5.53
2018-09-05T03:34:40.292Z,5.77
2018-09-05T03:37:08.574Z,5.23
2018-09-05T03:39:36.844Z,5.77
2018-09-05T03:42:05.113Z,5.53
2018-09-05T03:44:33.392Z,6.10
2018-09-05T03:47:01.680Z,5.53
2018-09-05T03:49:30.051Z,5.37
2018-09-05T03:51:59.128Z,5.33
2018-09-05T03:54:27.413Z,5.13
2018-09-05T03:56:55.772Z,5.50
2018-09-05T03:59:24.076Z,5.57
2018-09-05T04:01:52.429Z,5.30
2018-09-05T04:04:51.172Z,5.97
2018-09-05T04:07:19.442Z,5.57
2018-09-05T04:09:47.701Z,5.70
2018-09-05T04:12:16.020Z,6.10
2018-09-05T04:14:44.261Z,5.83
2018-09-05T04:17:12.532Z,6.77
2018-09-05T04:19:40.805Z,6.67
2018-09-05T04:22:09.090Z,6.53
2018-09-05T04:24:37.311Z,7.67
2018-09-05T04:27:05.575Z,6.97
2018-09-05T04:29:33.885Z,7.47
2018-09-05T04:32:02.208Z,7.33
2018-09-05T04:34:30.497Z,7.10
2018-09-05T04:36:58.800Z,6.77
2018-09-05T04:39:27.069Z,7.53
2018-09-05T04:41:55.346Z,7.67
2018-09-05T04:44:23.611Z,7.40
2018-09-05T04:46:51.868Z,7.10
2018-09-05T04:49:20.209Z,7.00
2018-09-05T04:51:48.561Z,7.43
2018-09-05T04:54:16.822Z,6.97
2018-09-05T04:56:45.100Z,7.10
2018-09-05T04:59:13.361Z,6.77
2018-09-05T05:01:41.632Z,6.60
2018-09-05T05:04:09.881Z,7.20
2018-09-05T05:06:38.262Z,7.00
2018-09-05T05:09:09.097Z,7.40
2018-09-05T05:11:37.387Z,6.73
2018-09-05T05:14:05.725Z,7.20
2018-09-05T05:16:34.003Z,7.30
2018-09-05T05:19:02.278Z,7.07
2018-09-05T05:21:30.642Z,6.77
2018-09-05T05:23:58.889Z,7.07
2018-09-05T05:26:27.163Z,6.73
2018-09-05T05:28:55.448Z,7.17
2018-09-05T05:31:23.737Z,6.70
2018-09-05T05:33:52.013Z,6.90
2018-09-05T05:36:20.277Z,7.17
2018-09-05T05:38:48.527Z,6.40
2018-09-05T05:41:16.804Z,6.93
2018-09-05T05:43:45.106Z,6.37
2018-09-05T05:46:13.390Z,6.73
2018-09-05T05:48:41.646Z,6.50
2018-09-05T05:51:09.980Z,6.60
2018-09-05T05:53:38.260Z,6.53
2018-09-05T05:56:06.524Z,5.83
2018-09-05T05:58:34.787Z,6.80
2018-09-05T06:01:03.122Z,6.17
2018-09-05T06:03:31.317Z,5.87
2018-09-05T06:05:59.590Z,6.50
2018-09-05T06:08:27.845Z,5.93
2018-09-05T06:10:56.116Z,6.90
2018-09-05T06:13:24.402Z,6.73
2018-09-05T06:15:52.702Z,6.53
2018-09-05T06:18:20.987Z,6.67
2018-09-05T06:20:49.245Z,6.50
2018-09-05T06:23:17.503Z,6.33
2018-09-05T06:25:45.825Z,6.80
2018-09-05T06:28:14.130Z,6.87
2018-09-05T06:30:42.484Z,7.10
2018-09-05T06:33:10.671Z,6.03
2018-09-05T06:35:38.946Z,6.77
2018-09-05T06:38:07.220Z,7.10
2018-09-05T06:40:35.476Z,6.70
2018-09-05T06:43:03.745Z,6.40
2018-09-05T06:45:32.033Z,7.00
2018-09-05T06:48:00.267Z,7.07
2018-09-05T06:50:28.585Z,6.30
2018-09-05T06:52:56.864Z,6.70
2018-09-05T06:55:25.133Z,6.77
2018-09-05T06:57:53.409Z,7.10
2018-09-05T07:00:21.725Z,6.80
2018-09-05T07:02:50.011Z,6.40
2018-09-05T07:05:18.850Z,7.03
2018-09-05T07:07:47.158Z,6.63
2018-09-05T07:10:15.440Z,6.37
2018-09-05T07:12:43.712Z,6.70
2018-09-05T07:15:11.988Z,6.53
2018-09-05T07:17:40.319Z,6.90
2018-09-05T07:20:08.528Z,6.37
2018-09-05T07:22:36.816Z,7.30
2018-09-05T07:25:05.548Z,6.73
2018-09-05T07:27:33.888Z,6.63
2018-09-05T07:30:02.042Z,6.70
2018-09-05T07:32:30.330Z,6.43
2018-09-05T07:34:58.603Z,6.63
2018-09-05T07:37:26.889Z,6.73
2018-09-05T07:39:55.155Z,7.30
2018-09-05T07:42:24.117Z,7.40
2018-09-05T07:44:52.409Z,7.70
2018-09-05T07:47:25.898Z,7.83
2018-09-05T07:49:54.197Z,7.47
2018-09-05T07:52:22.467Z,7.70
2018-09-05T07:54:50.761Z,8.00
2018-09-05T07:57:19.048Z,8.07
2018-09-05T07:59:47.286Z,7.93
2018-09-05T08:02:15.545Z,7.30
2018-09-05T08:04:43.837Z,7.50
2018-09-05T08:07:12.134Z,8.03
2018-09-05T08:09:40.403Z,7.50
2018-09-05T08:12:08.659Z,7.87
2018-09-05T08:14:36.953Z,7.40
2018-09-05T08:17:05.231Z,8.10
2018-09-05T08:19:33.608Z,7.83
2018-09-05T08:22:01.882Z,8.10
2018-09-05T08:24:30.265Z,7.93
2018-09-05T08:26:58.478Z,7.77
2018-09-05T08:29:26.760Z,7.83
2018-09-05T08:31:55.032Z,8.00
2018-09-05T08:34:23.285Z,8.00
2018-09-05T08:36:51.899Z,7.40
2018-09-05T08:39:19.862Z,7.70
2018-09-05T08:41:48.169Z,7.30
2018-09-05T08:44:16.500Z,7.57
2018-09-05T08:46:44.718Z,7.90
2018-09-05T08:49:12.955Z,7.60
2018-09-05T08:51:41.240Z,7.50
2018-09-05T08:54:09.536Z,7.57
2018-09-05T08:56:37.792Z,7.73
2018-09-05T08:59:06.078Z,7.30
2018-09-05T09:01:34.718Z,7.43
2018-09-05T09:04:02.988Z,6.80
2018-09-05T09:06:31.256Z,7.77
2018-09-05T09:08:59.536Z,8.07
2018-09-05T09:11:27.804Z,7.80
2018-09-05T09:13:56.068Z,7.83
2018-09-05T09:16:24.320Z,7.90
2018-09-05T09:18:52.639Z,7.43
2018-09-05T09:21:20.892Z,7.90
2018-09-05T09:23:49.168Z,7.77
2018-09-05T09:26:17.434Z,8.07
2018-09-05T09:28:45.696Z,8.23
2018-09-05T09:31:13.958Z,7.40
2018-09-05T09:33:42.230Z,7.57
2018-09-05T09:36:10.522Z,7.27
2018-09-05T09:38:38.811Z,8.00
2018-09-05T09:41:07.118Z,8.00
2018-09-05T09:43:35.404Z,7.70
2018-09-05T09:46:03.663Z,7.67
2018-09-05T09:48:31.926Z,7.67
2018-09-05T09:51:00.285Z,7.93
2018-09-05T09:53:28.562Z,7.43
2018-09-05T09:55:56.824Z,7.93
2018-09-05T09:58:25.116Z,8.67
2018-09-05T10:00:58.727Z,7.90
2018-09-05T10:03:32.434Z,8.40
2018-09-05T10:06:06.175Z,8.33
2018-09-05T10:08:40.673Z,8.00
2018-09-05T10:11:15.413Z,7.67
2018-09-05T10:13:48.998Z,9.60
2018-09-05T10:16:22.636Z,9.40
2018-09-05T10:18:52.208Z,8.67
2018-09-05T10:21:20.691Z,9.10
2018-09-05T10:23:48.943Z,9.10
2018-09-05T10:26:17.234Z,9.07
2018-09-05T10:28:45.494Z,9.07
2018-09-05T10:31:13.872Z,8.83
2018-09-05T10:33:42.129Z,8.87
2018-09-05T10:36:10.387Z,9.00
2018-09-05T10:38:38.732Z,9.43
2018-09-05T10:41:06.999Z,8.80
2018-09-05T10:43:35.263Z,9.60
2018-09-05T10:46:03.553Z,9.40
2018-09-05T10:48:31.857Z,10.27
2018-09-05T10:51:00.137Z,9.77
2018-09-05T10:53:28.403Z,9.50
2018-09-05T10:55:56.671Z,10.30
2018-09-05T10:58:24.961Z,9.80
2018-09-05T11:00:53.243Z,10.40
2018-09-05T11:03:21.495Z,10.03
2018-09-05T11:05:49.763Z,10.10
2018-09-05T11:08:18.035Z,10.20
2018-09-05T11:10:46.342Z,10.23
2018-09-05T11:13:14.547Z,9.90
2018-09-05T11:15:42.835Z,9.87
2018-09-05T11:18:11.111Z,10.33
2018-09-05T11:20:39.395Z,9.33
2018-09-05T11:23:07.691Z,10.07
2018-09-05T11:25:35.962Z,9.77
2018-09-05T11:28:04.247Z,10.03
2018-09-05T11:30:32.527Z,9.93
2018-09-05T11:33:00.820Z,10.57
2018-09-05T11:35:29.107Z,10.60
2018-09-05T11:37:57.381Z,10.03
2018-09-05T11:40:25.667Z,9.87
2018-09-05T11:42:53.938Z,11.40
2018-09-05T11:45:22.213Z,9.87
2018-09-05T11:47:50.516Z,10.67
2018-09-05T11:50:18.803Z,10.47
2018-09-05T11:52:47.092Z,10.13
2018-09-05T11:55:15.375Z,9.87
2018-09-05T11:57:43.668Z,10.50
2018-09-05T12:00:11.941Z,10.57
2018-09-05T12:02:40.210Z,10.67
2018-09-05T12:05:08.587Z,10.73
2018-09-05T12:07:36.850Z,10.80
2018-09-05T12:10:05.152Z,10.53
2018-09-05T12:12:33.453Z,10.57
2018-09-05T12:15:01.731Z,10.53
2018-09-05T12:17:30.035Z,11.03
2018-09-05T12:19:58.333Z,12.40
2018-09-05T12:22:26.611Z,11.80
2018-09-05T12:24:54.890Z,11.30
2018-09-05T12:27:23.163Z,11.50
2018-09-05T12:29:51.436Z,11.77
2018-09-05T12:32:19.724Z,11.90
2018-09-05T12:34:47.977Z,11.93
2018-09-05T12:37:16.261Z,12.00
2018-09-05T12:39:44.531Z,11.63
2018-09-05T12:42:12.805Z,11.53
2018-09-05T12:44:41.145Z,11.77
2018-09-05T12:47:09.386Z,11.43
2018-09-05T12:49:37.672Z,10.70
2018-09-05T12:52:06.002Z,11.33
2018-09-05T12:54:34.311Z,11.40
2018-09-05T12:57:03.077Z,11.23
2018-09-05T12:59:31.373Z,11.23
2018-09-05T13:01:59.677Z,11.20
2018-09-05T13:04:27.949Z,10.80
2018-09-05T13:06:56.237Z,11.20
2018-09-05T13:09:24.504Z,11.07
2018-09-05T13:11:52.793Z,10.73
2018-09-05T13:14:21.105Z,11.30
2018-09-05T13:16:49.424Z,10.73
2018-09-05T13:19:17.691Z,10.83
2018-09-05T13:21:45.975Z,11.40
2018-09-05T13:24:14.368Z,11.33
2018-09-05T13:26:42.672Z,11.47
2018-09-05T13:29:10.877Z,11.60
2018-09-05T13:31:39.177Z,11.23
2018-09-05T13:34:07.461Z,10.80
2018-09-05T13:36:35.736Z,11.17
2018-09-05T13:39:05.503Z,11.23
2018-09-05T13:41:33.799Z,10.97
2018-09-05T13:44:02.111Z,10.70
2018-09-05T13:46:30.411Z,11.00
2018-09-05T13:48:58.700Z,10.70
2018-09-05T13:51:26.994Z,10.70
2018-09-05T13:53:55.314Z,11.13
2018-09-05T13:56:23.713Z,11.90
2018-09-05T13:58:51.902Z,11.43
2018-09-05T14:01:20.277Z,11.57
2018-09-05T14:03:48.680Z,11.23
2018-09-05T14:06:16.984Z,11.17
2018-09-05T14:08:45.296Z,11.23
2018-09-05T14:11:13.572Z,11.30
2018-09-05T14:13:41.885Z,11.57
2018-09-05T14:16:10.235Z,10.93
2018-09-05T14:18:38.526Z,11.63
2018-09-05T14:21:06.802Z,11.00
2018-09-05T14:23:35.071Z,11.37
2018-09-05T14:26:03.380Z,11.30
2018-09-05T14:28:31.670Z,11.10
2018-09-05T14:30:59.978Z,11.00
2018-09-05T14:33:28.296Z,10.47
2018-09-05T14:35:56.713Z,10.50
2018-09-05T14:38:25.116Z,11.33
2018-09-05T14:40:53.407Z,10.70
2018-09-05T14:43:21.732Z,11.67
2018-09-05T14:45:50.006Z,11.00
2018-09-05T14:48:18.354Z,10.87
2018-09-05T14:50:46.618Z,10.73
2018-09-05T14:53:14.894Z,11.60
2018-09-05T14:55:43.179Z,11.73
2018-09-05T14:58:11.558Z,11.13
2018-09-05T15:00:40.800Z,11.47
2018-09-05T15:03:09.070Z,10.43
2018-09-05T15:05:37.353Z,9.93
2018-09-05T15:08:05.848Z,10.23
2018-09-05T15:10:34.243Z,10.30
2018-09-05T15:13:02.551Z,10.27
2018-09-05T15:15:30.871Z,10.53
2018-09-05T15:17:59.180Z,10.37
2018-09-05T15:20:27.526Z,11.30
2018-09-05T15:22:55.888Z,11.40
2018-09-05T15:25:24.252Z,10.93
2018-09-05T15:27:52.724Z,10.43
2018-09-05T15:30:21.168Z,11.10
2018-09-05T15:32:49.465Z,11.13
2018-09-05T15:35:17.800Z,11.77
2018-09-05T15:37:46.111Z,10.73
2018-09-05T15:40:14.416Z,11.37
2018-09-05T15:42:42.760Z,11.47
2018-09-05T15:45:11.076Z,10.90
2018-09-05T15:47:39.424Z,11.33
2018-09-05T15:50:07.733Z,11.07
2018-09-05T15:52:36.060Z,11.20
2018-09-05T15:55:04.388Z,10.90
2018-09-05T15:57:32.758Z,11.70
2018-09-05T16:00:01.038Z,11.67
2018-09-05T16:02:29.386Z,11.83
2018-09-05T16:04:57.694Z,10.80
2018-09-05T16:07:26.008Z,11.20
2018-09-05T16:09:54.312Z,10.93
2018-09-05T16:12:22.627Z,10.90
2018-09-05T16:14:50.924Z,10.67
2018-09-05T16:17:19.279Z,10.87
2018-09-05T16:19:47.592Z,10.47
2018-09-05T16:22:15.968Z,10.17
2018-09-05T16:24:44.269Z,11.00
2018-09-05T16:27:12.592Z,10.93
2018-09-05T16:29:40.943Z,10.57
2018-09-05T16:32:09.237Z,11.00
2018-09-05T16:34:37.571Z,10.60
2018-09-05T16:37:06.078Z,10.87
2018-09-05T16:39:34.438Z,10.37
2018-09-05T16:42:02.740Z,11.60
2018-09-05T16:44:31.217Z,11.60
2018-09-05T16:46:59.600Z,11.80
2018-09-05T16:49:27.902Z,11.90
2018-09-05T16:51:56.236Z,11.67
2018-09-05T16:54:24.556Z,11.63
2018-09-05T16:56:52.832Z,11.63
2018-09-05T16:59:21.177Z,11.20
2018-09-05T17:01:49.492Z,11.03
2018-09-05T17:04:17.823Z,10.83
2018-09-05T17:06:46.226Z,10.80
2018-09-05T17:09:14.524Z,10.80
2018-09-05T17:11:42.849Z,10.93
2018-09-05T17:14:11.180Z,10.60
2018-09-05T17:16:39.491Z,11.03
2018-09-05T17:19:07.821Z,10.77
2018-09-05T17:21:36.692Z,10.87
2018-09-05T17:24:05.074Z,10.77
2018-09-05T17:26:33.381Z,10.67
2018-09-05T17:29:01.737Z,10.90
2018-09-05T17:31:30.109Z,11.23
2018-09-05T17:33:58.522Z,11.70
2018-09-05T17:36:26.825Z,10.70
2018-09-05T17:38:55.115Z,11.10
2018-09-05T17:41:23.418Z,11.33
2018-09-05T17:43:51.754Z,10.90
2018-09-05T17:46:20.217Z,10.97
2018-09-05T17:48:48.580Z,10.47
2018-09-05T17:51:16.897Z,10.67
2018-09-05T17:53:45.318Z,10.60
2018-09-05T17:56:13.544Z,10.57
2018-09-05T17:58:41.856Z,10.70
2018-09-05T18:01:12.987Z,10.70
2018-09-05T18:03:41.296Z,10.50
2018-09-05T18:06:09.618Z,10.47
2018-09-05T18:08:37.916Z,11.00
2018-09-05T18:11:06.273Z,10.77
2018-09-05T18:13:34.593Z,11.50
2018-09-05T18:16:02.889Z,11.43
2018-09-05T18:18:31.266Z,11.03
2018-09-05T18:20:59.688Z,11.00
2018-09-05T18:23:28.005Z,10.60
2018-09-05T18:25:56.318Z,10.47
2018-09-05T18:28:25.437Z,11.83
2018-09-05T18:30:53.809Z,11.17
2018-09-05T18:33:22.871Z,11.27
2018-09-05T18:35:51.191Z,11.50
2018-09-05T18:38:19.617Z,12.57
2018-09-05T18:40:47.921Z,11.30
2018-09-05T18:43:16.274Z,11.20
2018-09-05T18:45:44.607Z,11.87
2018-09-05T18:48:12.979Z,11.57
2018-09-05T18:50:42.019Z,12.50
2018-09-05T18:53:11.026Z,11.47
2018-09-05T18:55:40.351Z,11.60
2018-09-05T18:58:09.672Z,12.90
2018-09-05T19:00:38.203Z,12.70
2018-09-05T19:03:07.323Z,12.30
2018-09-05T19:05:35.701Z,12.93
2018-09-05T19:08:04.057Z,12.80
2018-09-05T19:10:32.568Z,13.20
2018-09-05T19:13:00.968Z,12.60
2018-09-05T19:15:29.323Z,13.07
2018-09-05T19:17:57.815Z,11.80
2018-09-05T19:20:26.469Z,12.93
2018-09-05T19:22:55.636Z,12.57
2018-09-05T19:25:23.924Z,12.57
2018-09-05T19:27:52.315Z,12.60
2018-09-05T19:30:20.756Z,12.67
2018-09-05T19:32:49.210Z,13.53
2018-09-05T19:35:17.553Z,13.40
2018-09-05T19:37:45.997Z,13.47
2018-09-05T19:40:14.367Z,15.03
2018-09-05T19:42:42.725Z,15.87
2018-09-05T19:45:11.089Z,15.80
2018-09-05T19:47:40.626Z,14.10
2018-09-05T19:50:09.081Z,14.87
2018-09-05T19:52:37.511Z,15.60
2018-09-05T19:55:06.421Z,16.97
2018-09-05T19:57:34.805Z,17.90
2018-09-05T20:00:03.409Z,20.63
2018-09-05T20:02:31.769Z,23.13
2018-09-05T20:05:00.136Z,26.23
2018-09-05T20:07:28.530Z,25.97
2018-09-05T20:09:56.865Z,25.33
2018-09-05T20:12:25.202Z,25.53
2018-09-05T20:14:53.565Z,24.47
2018-09-05T20:17:21.875Z,24.07
2018-09-05T20:19:50.373Z,22.80
2018-09-05T20:22:18.787Z,21.63
2018-09-05T20:24:47.216Z,20.60
2018-09-05T20:27:15.665Z,19.80
2018-09-05T20:29:44.062Z,20.23
2018-09-05T20:32:12.376Z,18.80
2018-09-05T20:34:40.714Z,18.93
2018-09-05T20:37:09.059Z,18.77
2018-09-05T20:39:37.423Z,18.10
2018-09-05T20:42:05.725Z,18.63
2018-09-05T20:44:34.035Z,18.87
2018-09-05T20:47:02.592Z,18.30
2018-09-05T20:49:30.981Z,17.30
2018-09-05T20:51:59.371Z,16.80
2018-09-05T20:54:27.648Z,17.33
2018-09-05T20:56:55.945Z,16.20
2018-09-05T20:59:24.261Z,16.00
2018-09-05T21:01:52.570Z,16.33
2018-09-05T21:04:20.894Z,16.30
2018-09-05T21:06:49.220Z,16.57
2018-09-05T21:09:17.517Z,15.37
2018-09-05T21:11:45.839Z,14.83
2018-09-05T21:14:14.139Z,15.30
2018-09-05T21:16:42.460Z,15.27
2018-09-05T21:19:10.761Z,14.00
2018-09-05T21:21:39.041Z,14.23
2018-09-05T21:24:07.329Z,13.20
2018-09-05T21:26:35.927Z,14.10
2018-09-05T21:29:04.154Z,13.83
2018-09-05T21:31:32.553Z,13.80
2018-09-05T21:34:00.826Z,13.20
2018-09-05T21:36:29.126Z,12.83
2018-09-05T21:38:57.431Z,13.60
2018-09-05T21:41:25.729Z,13.40
2018-09-05T21:43:54.024Z,12.90
2018-09-05T21:46:22.349Z,12.00
2018-09-05T21:48:50.670Z,12.70
2018-09-05T21:51:18.951Z,12.17
2018-09-05T21:53:47.218Z,12.50
2018-09-05T21:56:15.499Z,12.73
2018-09-05T21:58:43.780Z,12.70
2018-09-05T22:01:12.136Z,12.83
2018-09-05T22:03:40.382Z,12.97
2018-09-05T22:06:08.663Z,13.20
2018-09-05T22:08:36.930Z,12.73
2018-09-05T22:11:10.689Z,13.30
2018-09-05T22:13:38.969Z,12.40
2018-09-05T22:16:07.208Z,13.27
2018-09-05T22:18:35.484Z,13.23
2018-09-05T22:21:03.772Z,13.30
2018-09-05T22:23:32.060Z,12.70
2018-09-05T22:26:00.349Z,12.70
2018-09-05T22:28:28.624Z,12.73
2018-09-05T22:30:56.900Z,12.87
2018-09-05T22:33:25.180Z,12.30
2018-09-05T22:35:53.467Z,13.33
2018-09-05T22:38:21.796Z,12.87
2018-09-05T22:40:54.150Z,12.60
2018-09-05T22:43:35.038Z,12.37
2018-09-05T22:46:14.703Z,11.40
2018-09-05T22:48:54.973Z,12.17
2018-09-05T22:52:14.023Z,13.00
2018-09-05T22:55:07.280Z,12.60
2018-09-05T22:57:50.899Z,12.67
2018-09-05T23:02:39.756Z,12.67
2018-09-05T23:05:25.305Z,12.30
2018-09-05T23:08:58.471Z,12.30
2018-09-05T23:12:09.176Z,11.43
2018-09-05T23:14:48.841Z,12.07
2018-09-05T23:17:28.601Z,12.43
2018-09-05T23:22:11.963Z,11.70
2018-09-05T23:24:40.227Z,11.77
2018-09-05T23:27:08.491Z,11.70
2018-09-05T23:29:36.747Z,12.07
2018-09-05T23:32:05.037Z,11.90
2018-09-05T23:34:33.317Z,11.70
2018-09-05T23:37:01.583Z,12.73
2018-09-05T23:39:29.849Z,11.93
2018-09-05T23:41:58.121Z,11.90
2018-09-05T23:44:26.406Z,11.70
2018-09-05T23:46:54.685Z,11.70
2018-09-05T23:49:22.966Z,12.37
2018-09-05T23:51:51.237Z,11.60
2018-09-05T23:54:19.492Z,12.40
2018-09-05T23:56:47.785Z,12.50
2018-09-05T23:59:16.057Z,11.60
